Time,TemperatureF,DewpointF,PressureIn,WindDirection,WindDirectionDegrees,WindSpeedMPH,WindSpeedGustMPH,Humidity,HourlyPrecipIn,Conditions,Clouds,dailyrainin,SolarRadiationWatts/m^2,SoftwareType,DateUTC
2013-05-08 00:02:00,52.0,50.4,29.96,ESE,113,0.0,3.0,91,0.00,,,1.21,0.0,meteohub,2013-05-08 04:02:00,
2013-05-08 00:05:00,51.8,50.2,29.96,ESE,113,0.0,3.0,91,0.00,,,0.00,0.0,meteohub,2013-05-08 04:05:00,
2013-05-08 00:08:00,51.8,50.4,29.96,ESE,113,0.0,3.0,92,0.00,,,0.00,0.0,meteohub,2013-05-08 04:08:00,
2013-05-08 00:11:00,51.8,50.4,29.96,ESE,113,0.0,3.0,92,0.00,,,0.00,0.0,meteohub,2013-05-08 04:11:00,
2013-05-08 00:17:00,51.8,50.4,29.96,ESE,113,0.0,2.0,92,0.00,,,0.00,0.0,meteohub,2013-05-08 04:17:00,
2013-05-08 00:22:00,51.8,50.4,29.96,ESE,113,0.0,0.0,92,0.00,,,0.00,0.0,meteohub,2013-05-08 04:22:00,
2013-05-08 00:27:00,51.6,50.2,29.96,ESE,113,0.0,0.0,92,0.00,,,0.00,0.0,meteohub,2013-05-08 04:27:00,
2013-05-08 00:32:00,51.6,50.2,29.96,ESE,113,0.0,0.0,92,0.00,,,0.00,0.0,meteohub,2013-05-08 04:32:00,
2013-05-08 00:37:00,51.6,50.2,29.96,ESE,113,0.0,0.0,92,0.00,,,0.00,0.0,meteohub,2013-05-08 04:37:00,
2013-05-08 00:42:00,51.6,50.2,29.96,ESE,113,0.0,0.0,92,0.00,,,0.00,0.0,meteohub,2013-05-08 04:42:00,
2013-05-08 00:47:00,51.4,50.0,29.96,ESE,113,0.0,0.0,92,0.00,,,0.00,0.0,meteohub,2013-05-08 04:47:00,
2013-05-08 00:52:00,51.4,50.0,29.96,ESE,113,0.0,0.0,92,0.00,,,0.00,0.0,meteohub,2013-05-08 04:52:00,
2013-05-08 00:57:00,51.3,49.8,29.96,ESE,113,0.0,0.0,92,0.00,,,0.00,0.0,meteohub,2013-05-08 04:57:00,
2013-05-08 01:02:00,51.3,49.8,29.96,ESE,113,0.0,0.0,92,0.00,,,0.00,0.0,meteohub,2013-05-08 05:02:00,
2013-05-08 01:07:00,51.3,49.8,29.96,ESE,113,0.0,0.0,92,0.00,,,0.00,0.0,meteohub,2013-05-08 05:07:00,
2013-05-08 01:12:00,51.3,49.8,29.96,ESE,113,0.0,1.0,92,0.00,,,0.00,0.0,meteohub,2013-05-08 05:12:00,
2013-05-08 01:18:00,51.3,49.8,29.96,ESE,114,0.0,1.0,92,0.00,,,0.00,0.0,meteohub,2013-05-08 05:18:00,
2013-05-08 01:24:00,51.1,49.6,29.96,ESE,113,0.0,1.0,92,0.00,,,0.00,0.0,meteohub,2013-05-08 05:24:00,
2013-05-08 01:30:00,51.1,49.6,29.96,ESE,114,1.0,2.0,92,0.00,,,0.00,0.0,meteohub,2013-05-08 05:30:00,
2013-05-08 01:36:00,51.1,49.6,29.96,ESE,114,0.0,2.0,92,0.00,,,0.00,0.0,meteohub,2013-05-08 05:36:00,
2013-05-08 01:42:00,51.1,49.6,29.96,ESE,114,0.0,2.0,92,0.00,,,0.00,0.0,meteohub,2013-05-08 05:42:00,
2013-05-08 01:47:00,51.1,49.6,29.96,ESE,113,0.0,2.0,92,0.00,,,0.00,0.0,meteohub,2013-05-08 05:47:00,
2013-05-08 01:52:00,51.1,49.6,29.96,ESE,114,1.0,2.0,92,0.00,,,0.00,0.0,meteohub,2013-05-08 05:52:00,
2013-05-08 01:57:00,51.1,49.6,29.96,ESE,114,1.0,2.0,92,0.00,,,0.00,0.0,meteohub,2013-05-08 05:57:00,
2013-05-08 02:02:00,51.1,49.6,29.96,ESE,114,1.0,2.0,92,0.00,,,0.00,0.0,meteohub,2013-05-08 06:02:00,
2013-05-08 02:07:00,51.1,49.6,29.96,ESE,113,0.0,2.0,92,0.00,,,0.00,0.0,meteohub,2013-05-08 06:07:00,
2013-05-08 02:12:00,51.1,49.6,29.96,ESE,114,0.0,2.0,92,0.00,,,0.00,0.0,meteohub,2013-05-08 06:12:00,
2013-05-08 02:17:00,51.1,49.6,29.96,ESE,114,0.0,2.0,92,0.00,,,0.00,0.0,meteohub,2013-05-08 06:17:00,
2013-05-08 02:22:00,51.1,49.6,29.96,ESE,113,0.0,0.0,92,0.00,,,0.00,0.0,meteohub,2013-05-08 06:22:00,
2013-05-08 02:27:00,51.1,49.6,29.96,ESE,114,0.0,0.0,92,0.00,,,0.00,0.0,meteohub,2013-05-08 06:27:00,
2013-05-08 02:32:00,51.3,49.8,29.96,ESE,114,0.0,0.0,92,0.00,,,0.00,0.0,meteohub,2013-05-08 06:32:00,
2013-05-08 02:37:00,51.3,49.8,29.96,ESE,114,0.0,0.0,92,0.00,,,0.00,0.0,meteohub,2013-05-08 06:37:00,
2013-05-08 02:42:00,51.3,49.8,29.96,ESE,114,0.0,0.0,92,0.00,,,0.00,0.0,meteohub,2013-05-08 06:42:00,
2013-05-08 02:47:00,51.3,49.8,29.95,ESE,113,0.0,0.0,92,0.00,,,0.00,0.0,meteohub,2013-05-08 06:47:00,
2013-05-08 02:52:00,51.3,49.8,29.95,ESE,114,0.0,2.0,92,0.00,,,0.00,0.0,meteohub,2013-05-08 06:52:00,
2013-05-08 02:57:00,51.3,49.8,29.95,ESE,114,0.0,2.0,92,0.00,,,0.00,0.0,meteohub,2013-05-08 06:57:00,
2013-05-08 03:02:00,51.3,49.8,29.95,ESE,113,0.0,2.0,92,0.00,,,0.00,0.0,meteohub,2013-05-08 07:02:00,
2013-05-08 03:08:00,51.3,49.8,29.95,ESE,114,0.0,2.0,92,0.00,,,0.00,0.0,meteohub,2013-05-08 07:08:00,
2013-05-08 03:14:00,51.3,49.8,29.95,ESE,113,0.0,2.0,92,0.00,,,0.00,0.0,meteohub,2013-05-08 07:14:00,
2013-05-08 03:20:00,51.3,49.8,29.95,NE,34,2.0,2.0,92,0.00,,,0.00,0.0,meteohub,2013-05-08 07:20:00,
2013-05-08 03:26:00,51.4,50.0,29.95,NNE,33,0.0,3.0,92,0.00,,,0.00,0.0,meteohub,2013-05-08 07:26:00,
2013-05-08 03:32:00,51.6,50.2,29.96,NNE,33,0.0,3.0,92,0.00,,,0.00,0.0,meteohub,2013-05-08 07:32:00,
2013-05-08 03:37:00,51.6,50.2,29.96,NNE,33,0.0,3.0,92,0.00,,,0.00,0.0,meteohub,2013-05-08 07:37:00,
2013-05-08 03:42:00,51.6,50.2,29.96,NNE,33,0.0,2.0,92,0.00,,,0.00,0.0,meteohub,2013-05-08 07:42:00,
2013-05-08 03:47:00,51.6,50.5,29.96,NNE,33,0.0,2.0,93,0.00,,,0.00,0.0,meteohub,2013-05-08 07:47:00,
2013-05-08 03:52:00,51.8,50.7,29.95,NNE,33,0.0,2.0,93,0.00,,,0.00,0.0,meteohub,2013-05-08 07:52:00,
2013-05-08 03:57:00,51.8,50.7,29.95,NNE,33,0.0,1.0,93,0.00,,,0.00,0.0,meteohub,2013-05-08 07:57:00,
2013-05-08 04:02:00,52.0,50.9,29.95,NNE,32,0.0,2.0,93,0.00,,,0.00,0.0,meteohub,2013-05-08 08:02:00,
2013-05-08 04:07:00,52.0,50.9,29.95,NNE,26,1.0,2.0,93,0.00,,,0.00,0.0,meteohub,2013-05-08 08:07:00,
2013-05-08 04:12:00,52.0,50.5,29.96,North,5,1.0,4.0,92,0.00,,,0.00,0.0,meteohub,2013-05-08 08:12:00,
2013-05-08 04:17:00,52.0,50.5,29.96,NE,34,2.0,4.0,92,0.00,,,0.00,0.0,meteohub,2013-05-08 08:17:00,
2013-05-08 04:22:00,52.0,50.5,29.96,North,11,1.0,4.0,92,0.00,,,0.00,0.0,meteohub,2013-05-08 08:22:00,
2013-05-08 04:27:00,52.0,50.9,29.96,North,9,0.0,4.0,93,0.00,,,0.00,0.0,meteohub,2013-05-08 08:27:00,
2013-05-08 04:32:00,52.0,50.5,29.96,North,9,0.0,4.0,92,0.00,,,0.00,0.0,meteohub,2013-05-08 08:32:00,
2013-05-08 04:37:00,52.0,50.5,29.96,North,9,0.0,3.0,92,0.00,,,0.00,0.0,meteohub,2013-05-08 08:37:00,
2013-05-08 04:42:00,52.0,50.5,29.96,North,0,1.0,1.0,92,0.00,,,0.00,0.0,meteohub,2013-05-08 08:42:00,
2013-05-08 04:47:00,52.0,50.5,29.96,North,0,0.0,3.0,92,0.00,,,0.00,0.0,meteohub,2013-05-08 08:47:00,
2013-05-08 04:52:00,52.2,50.7,29.96,North,0,0.0,3.0,92,0.01,,,0.00,0.0,meteohub,2013-05-08 08:52:00,
2013-05-08 04:57:00,52.2,50.7,29.96,North,0,0.0,3.0,92,0.01,,,0.01,0.0,meteohub,2013-05-08 08:57:00,
2013-05-08 05:02:00,52.2,50.7,29.96,North,0,0.0,0.0,92,0.01,,,0.01,0.0,meteohub,2013-05-08 09:02:00,
2013-05-08 05:07:00,52.3,51.3,29.95,North,0,0.0,0.0,93,0.01,,,0.01,0.0,meteohub,2013-05-08 09:07:00,
2013-05-08 05:12:00,52.3,51.3,29.95,North,0,0.0,0.0,93,0.01,,,0.01,0.0,meteohub,2013-05-08 09:12:00,
2013-05-08 05:17:00,52.3,51.3,29.95,North,0,1.0,0.0,93,0.01,,,0.01,0.0,meteohub,2013-05-08 09:17:00,
2013-05-08 05:22:00,52.3,51.3,29.95,North,355,1.0,2.0,93,0.01,,,0.01,0.0,meteohub,2013-05-08 09:22:00,
2013-05-08 05:27:00,52.3,51.3,29.95,North,355,0.0,4.0,93,0.01,,,0.01,0.0,meteohub,2013-05-08 09:27:00,
2013-05-08 05:32:00,52.3,51.3,29.95,WSW,257,0.0,4.0,93,0.01,,,0.01,0.0,meteohub,2013-05-08 09:32:00,
2013-05-08 05:37:00,52.3,50.9,29.95,WSW,257,0.0,4.0,92,0.01,,,0.01,0.0,meteohub,2013-05-08 09:37:00,
2013-05-08 05:42:00,52.2,50.7,29.95,WSW,257,0.0,2.0,92,0.01,,,0.01,0.0,meteohub,2013-05-08 09:42:00,
2013-05-08 05:47:00,52.2,50.7,29.95,WSW,258,0.0,0.0,92,0.01,,,0.01,0.0,meteohub,2013-05-08 09:47:00,
2013-05-08 05:52:00,52.2,50.7,29.95,NW,306,0.0,2.0,92,0.00,,,0.01,0.0,meteohub,2013-05-08 09:52:00,
2013-05-08 05:58:00,52.3,50.9,29.95,WNW,300,1.0,3.0,92,0.00,,,0.01,0.0,meteohub,2013-05-08 09:58:00,
2013-05-08 06:04:00,52.2,50.7,29.95,North,350,0.0,3.0,92,0.00,,,0.01,0.0,meteohub,2013-05-08 10:04:00,
2013-05-08 06:10:00,52.3,50.9,29.95,North,9,0.0,4.0,92,0.00,,,0.01,0.0,meteohub,2013-05-08 10:10:00,
2013-05-08 06:16:00,52.3,51.3,29.96,NNE,12,0.0,3.0,93,0.00,,,0.01,0.0,meteohub,2013-05-08 10:16:00,
2013-05-08 06:22:00,52.5,51.1,29.96,NNE,12,0.0,3.0,92,0.00,,,0.01,0.0,meteohub,2013-05-08 10:22:00,
2013-05-08 06:27:00,52.5,51.4,29.96,NNE,12,0.0,3.0,93,0.00,,,0.01,0.0,meteohub,2013-05-08 10:27:00,
2013-05-08 06:32:00,52.5,51.4,29.96,NNE,12,0.0,0.0,93,0.00,,,0.01,0.0,meteohub,2013-05-08 10:32:00,
2013-05-08 06:37:00,52.5,51.4,29.96,NNE,13,0.0,0.0,93,0.00,,,0.01,0.0,meteohub,2013-05-08 10:37:00,
2013-05-08 06:42:00,52.5,51.4,29.96,NNE,13,0.0,0.0,93,0.00,,,0.01,0.0,meteohub,2013-05-08 10:42:00,
2013-05-08 06:47:00,52.7,51.6,29.96,NNE,13,0.0,0.0,93,0.00,,,0.01,5.0,meteohub,2013-05-08 10:47:00,
2013-05-08 06:52:00,52.7,51.6,29.97,NNE,12,0.0,0.0,93,0.00,,,0.01,9.0,meteohub,2013-05-08 10:52:00,
2013-05-08 06:57:00,52.7,51.3,29.97,NNE,13,0.0,0.0,92,0.00,,,0.01,14.0,meteohub,2013-05-08 10:57:00,
2013-05-08 07:02:00,52.7,51.3,29.97,NNE,13,0.0,1.0,92,0.00,,,0.01,26.0,meteohub,2013-05-08 11:02:00,
2013-05-08 07:07:00,52.9,51.4,29.97,NW,315,0.0,1.0,92,0.00,,,0.01,40.0,meteohub,2013-05-08 11:07:00,
2013-05-08 07:12:00,52.9,51.4,29.97,NW,306,0.0,1.0,92,0.00,,,0.01,46.0,meteohub,2013-05-08 11:12:00,
2013-05-08 07:17:00,53.1,52.0,29.98,NW,306,0.0,2.0,93,0.00,,,0.01,49.0,meteohub,2013-05-08 11:17:00,
2013-05-08 07:22:00,53.1,52.0,29.98,NW,306,0.0,2.0,93,0.00,,,0.01,70.0,meteohub,2013-05-08 11:22:00,
2013-05-08 07:27:00,53.2,52.2,29.98,NW,306,0.0,0.0,93,0.00,,,0.01,79.0,meteohub,2013-05-08 11:27:00,
2013-05-08 07:32:00,53.4,52.3,29.98,NW,306,0.0,0.0,93,0.00,,,0.01,58.0,meteohub,2013-05-08 11:32:00,
2013-05-08 07:37:00,53.4,52.3,29.98,WNW,297,0.0,1.0,93,0.00,,,0.01,37.0,meteohub,2013-05-08 11:37:00,
2013-05-08 07:42:00,53.6,52.5,29.99,WNW,297,0.0,1.0,93,0.00,,,0.01,37.0,meteohub,2013-05-08 11:42:00,
2013-05-08 07:47:00,53.6,52.5,29.98,WNW,297,0.0,1.0,93,0.00,,,0.01,67.0,meteohub,2013-05-08 11:47:00,
2013-05-08 07:52:00,53.6,52.5,29.99,WNW,299,0.0,0.0,93,0.00,,,0.01,100.0,meteohub,2013-05-08 11:52:00,
2013-05-08 07:57:00,53.8,52.7,29.99,ENE,74,0.0,2.0,93,0.00,,,0.01,79.0,meteohub,2013-05-08 11:57:00,
2013-05-08 08:02:00,54.0,52.9,29.99,ENE,74,0.0,2.0,93,0.00,,,0.01,51.0,meteohub,2013-05-08 12:02:00,
2013-05-08 08:09:00,54.0,52.9,29.99,ESE,119,1.0,2.0,93,0.00,,,0.01,35.0,meteohub,2013-05-08 12:09:00,
2013-05-08 08:15:00,54.0,52.9,29.99,ESE,119,0.0,2.0,93,0.00,,,0.01,39.0,meteohub,2013-05-08 12:15:00,
2013-05-08 08:21:00,54.1,53.1,29.99,ESE,119,0.0,2.0,93,0.00,,,0.01,67.0,meteohub,2013-05-08 12:21:00,
2013-05-08 08:27:00,54.3,53.2,29.99,ESE,119,0.0,2.0,93,0.01,,,0.02,51.0,meteohub,2013-05-08 12:27:00,
2013-05-08 08:32:00,54.3,53.2,29.99,ESE,119,0.0,2.0,93,0.01,,,0.02,62.0,meteohub,2013-05-08 12:32:00,
2013-05-08 08:37:00,54.3,53.2,29.99,ESE,119,0.0,0.0,93,0.02,,,0.03,62.0,meteohub,2013-05-08 12:37:00,
2013-05-08 08:42:00,54.3,53.2,29.99,ESE,119,0.0,0.0,93,0.02,,,0.03,46.0,meteohub,2013-05-08 12:42:00,
2013-05-08 08:47:00,54.5,53.4,29.99,ESE,119,0.0,0.0,93,0.02,,,0.03,33.0,meteohub,2013-05-08 12:47:00,
2013-05-08 08:52:00,54.5,53.4,30.00,ESE,119,0.0,0.0,93,0.02,,,0.03,32.0,meteohub,2013-05-08 12:52:00,
2013-05-08 08:57:00,54.5,53.4,30.00,ESE,119,0.0,2.0,93,0.02,,,0.03,40.0,meteohub,2013-05-08 12:57:00,
2013-05-08 09:02:00,54.7,53.6,30.00,ESE,119,0.0,2.0,93,0.02,,,0.03,54.0,meteohub,2013-05-08 13:02:00,
2013-05-08 09:07:00,54.9,53.8,30.00,ESE,119,0.0,2.0,93,0.02,,,0.03,62.0,meteohub,2013-05-08 13:07:00,
2013-05-08 09:12:00,54.9,53.8,30.00,ESE,119,0.0,0.0,93,0.02,,,0.03,70.0,meteohub,2013-05-08 13:12:00,
2013-05-08 09:17:00,54.9,53.8,30.00,ESE,119,1.0,0.0,93,0.02,,,0.03,105.0,meteohub,2013-05-08 13:17:00,
2013-05-08 09:22:00,55.0,54.0,30.00,East,96,1.0,3.0,93,0.01,,,0.03,93.0,meteohub,2013-05-08 13:22:00,
2013-05-08 09:27:00,55.2,54.1,30.00,East,96,2.0,3.0,93,0.01,,,0.03,100.0,meteohub,2013-05-08 13:27:00,
2013-05-08 09:32:00,55.2,54.1,30.00,East,96,2.0,3.0,93,0.00,,,0.03,105.0,meteohub,2013-05-08 13:32:00,
2013-05-08 09:37:00,55.4,54.3,30.00,East,96,1.0,3.0,93,0.00,,,0.03,116.0,meteohub,2013-05-08 13:37:00,
2013-05-08 09:42:00,55.6,54.5,30.01,East,96,0.0,3.0,93,0.00,,,0.03,93.0,meteohub,2013-05-08 13:42:00,
2013-05-08 09:47:00,55.6,54.5,30.01,NW,310,2.0,3.0,93,0.00,,,0.03,104.0,meteohub,2013-05-08 13:47:00,
2013-05-08 09:52:00,55.6,54.5,30.01,ESE,110,1.0,3.0,93,0.00,,,0.03,90.0,meteohub,2013-05-08 13:52:00,
2013-05-08 09:57:00,55.6,54.5,30.01,SE,125,0.0,4.0,93,0.00,,,0.03,72.0,meteohub,2013-05-08 13:57:00,
2013-05-08 10:02:00,55.6,54.5,30.01,SE,125,0.0,4.0,93,0.00,,,0.03,72.0,meteohub,2013-05-08 14:02:00,
2013-05-08 10:07:00,55.6,54.1,30.01,SE,125,0.0,4.0,92,0.00,,,0.03,69.0,meteohub,2013-05-08 14:07:00,
2013-05-08 10:12:00,55.6,54.1,30.01,SE,125,1.0,3.0,92,0.00,,,0.03,104.0,meteohub,2013-05-08 14:12:00,
2013-05-08 10:17:00,55.6,54.1,30.01,SE,125,0.0,3.0,92,0.00,,,0.03,114.0,meteohub,2013-05-08 14:17:00,
2013-05-08 10:22:00,55.8,54.3,30.01,SE,125,0.0,2.0,92,0.00,,,0.03,165.0,meteohub,2013-05-08 14:22:00,
2013-05-08 10:27:00,56.1,54.7,30.01,SE,125,3.0,3.0,92,0.00,,,0.03,139.0,meteohub,2013-05-08 14:27:00,
2013-05-08 10:32:00,55.9,54.5,30.01,ESE,103,4.0,5.0,92,0.00,,,0.03,169.0,meteohub,2013-05-08 14:32:00,
2013-05-08 10:37:00,55.9,54.5,30.01,ESE,122,0.0,5.0,92,0.00,,,0.03,204.0,meteohub,2013-05-08 14:37:00,
2013-05-08 10:42:00,56.3,54.9,30.01,ESE,123,3.0,5.0,92,0.00,,,0.03,257.0,meteohub,2013-05-08 14:42:00,
2013-05-08 10:47:00,56.5,55.0,30.01,ESE,123,0.0,5.0,92,0.00,,,0.03,290.0,meteohub,2013-05-08 14:47:00,
2013-05-08 10:52:00,56.7,55.2,30.01,ESE,123,2.0,4.0,92,0.00,,,0.03,287.0,meteohub,2013-05-08 14:52:00,
2013-05-08 10:57:00,57.0,55.2,30.01,ESE,123,1.0,4.0,91,0.00,,,0.03,308.0,meteohub,2013-05-08 14:57:00,
2013-05-08 11:02:00,57.2,55.4,30.01,ESE,123,2.0,4.0,91,0.00,,,0.03,294.0,meteohub,2013-05-08 15:02:00,
2013-05-08 11:07:00,57.2,55.2,30.01,ESE,123,0.0,4.0,90,0.00,,,0.03,253.0,meteohub,2013-05-08 15:07:00,
2013-05-08 11:12:00,57.2,55.2,30.01,ESE,123,1.0,4.0,90,0.00,,,0.03,232.0,meteohub,2013-05-08 15:12:00,
2013-05-08 11:17:00,57.4,55.4,30.01,ESE,123,0.0,4.0,90,0.00,,,0.03,188.0,meteohub,2013-05-08 15:17:00,
2013-05-08 11:22:00,57.4,55.0,30.01,SE,129,0.0,4.0,89,0.00,,,0.03,190.0,meteohub,2013-05-08 15:22:00,
2013-05-08 11:27:00,57.6,55.6,30.01,SSE,153,0.0,3.0,90,0.00,,,0.03,248.0,meteohub,2013-05-08 15:27:00,
2013-05-08 11:32:00,57.7,55.4,30.01,SSE,157,1.0,4.0,89,0.00,,,0.03,290.0,meteohub,2013-05-08 15:32:00,
2013-05-08 11:37:00,57.9,55.2,30.01,ESE,117,2.0,5.0,88,0.00,,,0.03,271.0,meteohub,2013-05-08 15:37:00,
2013-05-08 11:42:00,57.7,54.5,30.01,ESE,112,4.0,5.0,86,0.00,,,0.03,285.0,meteohub,2013-05-08 15:42:00,
2013-05-08 11:47:00,57.9,55.0,30.00,ESE,113,1.0,5.0,87,0.00,,,0.03,334.0,meteohub,2013-05-08 15:47:00,
2013-05-08 11:52:00,58.1,55.2,30.00,ESE,123,3.0,6.0,87,0.00,,,0.03,202.0,meteohub,2013-05-08 15:52:00,
2013-05-08 11:57:00,58.3,55.4,30.00,ESE,113,4.0,6.0,87,0.00,,,0.03,121.0,meteohub,2013-05-08 15:57:00,
2013-05-08 12:02:00,58.3,55.0,30.00,ENE,59,2.0,6.0,86,0.00,,,0.03,116.0,meteohub,2013-05-08 16:02:00,
2013-05-08 12:07:00,58.3,55.0,30.00,ENE,69,1.0,5.0,86,0.00,,,0.03,142.0,meteohub,2013-05-08 16:07:00,
2013-05-08 12:12:00,58.5,55.2,29.99,ESE,122,0.0,5.0,86,0.00,,,0.03,221.0,meteohub,2013-05-08 16:12:00,
2013-05-08 12:17:00,58.5,55.2,29.99,ESE,121,0.0,4.0,86,0.00,,,0.03,255.0,meteohub,2013-05-08 16:17:00,
2013-05-08 12:22:00,58.6,55.4,29.99,SSE,166,1.0,4.0,86,0.00,,,0.03,330.0,meteohub,2013-05-08 16:22:00,
2013-05-08 12:27:00,58.8,55.6,29.99,SSE,166,2.0,3.0,86,0.00,,,0.03,348.0,meteohub,2013-05-08 16:27:00,
2013-05-08 12:32:00,58.8,55.2,29.99,SSE,166,0.0,3.0,85,0.00,,,0.03,214.0,meteohub,2013-05-08 16:32:00,
2013-05-08 12:37:00,58.8,55.2,29.99,SSE,166,0.0,3.0,85,0.00,,,0.03,207.0,meteohub,2013-05-08 16:37:00,
2013-05-08 12:42:00,59.0,55.4,29.99,SSE,166,0.0,3.0,85,0.00,,,0.03,188.0,meteohub,2013-05-08 16:42:00,
2013-05-08 12:47:00,59.0,55.8,29.99,SSE,166,0.0,3.0,86,0.00,,,0.03,186.0,meteohub,2013-05-08 16:47:00,
2013-05-08 12:52:00,59.0,55.4,29.99,SSE,166,0.0,1.0,85,0.00,,,0.03,171.0,meteohub,2013-05-08 16:52:00,
2013-05-08 12:57:00,59.2,55.6,29.99,SSE,166,0.0,1.0,85,0.00,,,0.03,144.0,meteohub,2013-05-08 16:57:00,
2013-05-08 13:03:00,59.2,56.3,29.99,SSE,166,0.0,1.0,87,0.01,,,0.04,141.0,meteohub,2013-05-08 17:03:00,
2013-05-08 13:09:00,59.2,55.9,29.99,SSE,166,2.0,2.0,86,0.02,,,0.05,98.0,meteohub,2013-05-08 17:09:00,
2013-05-08 13:15:00,59.0,55.8,29.98,SSE,166,1.0,3.0,86,0.03,,,0.06,132.0,meteohub,2013-05-08 17:15:00,
2013-05-08 13:21:00,58.6,55.8,29.98,SSE,166,1.0,4.0,87,0.04,,,0.07,134.0,meteohub,2013-05-08 17:21:00,
2013-05-08 13:27:00,58.3,55.4,29.98,ESE,113,2.0,5.0,87,0.05,,,0.08,139.0,meteohub,2013-05-08 17:27:00,
2013-05-08 13:32:00,57.9,55.0,29.98,ESE,117,4.0,5.0,87,0.06,,,0.09,174.0,meteohub,2013-05-08 17:32:00,
2013-05-08 13:37:00,57.7,55.0,29.98,ESE,117,0.0,5.0,88,0.06,,,0.09,165.0,meteohub,2013-05-08 17:37:00,
2013-05-08 13:42:00,57.7,55.0,29.99,ESE,117,0.0,5.0,88,0.06,,,0.09,149.0,meteohub,2013-05-08 17:42:00,
2013-05-08 13:47:00,57.7,55.0,29.99,ESE,117,1.0,4.0,88,0.07,,,0.10,181.0,meteohub,2013-05-08 17:47:00,
2013-05-08 13:52:00,57.9,55.6,29.99,ESE,117,1.0,3.0,89,0.07,,,0.10,274.0,meteohub,2013-05-08 17:52:00,
2013-05-08 13:57:00,57.9,55.6,29.98,ESE,116,0.0,4.0,89,0.07,,,0.10,227.0,meteohub,2013-05-08 17:57:00,
2013-05-08 14:02:00,57.9,55.2,29.99,ESE,116,0.0,4.0,88,0.06,,,0.10,95.0,meteohub,2013-05-08 18:02:00,
2013-05-08 14:07:00,58.1,55.8,29.98,ESE,116,2.0,4.0,89,0.05,,,0.10,125.0,meteohub,2013-05-08 18:07:00,
2013-05-08 14:12:00,58.1,55.4,29.98,ESE,116,2.0,2.0,88,0.06,,,0.11,109.0,meteohub,2013-05-08 18:12:00,
2013-05-08 14:17:00,57.9,55.2,29.98,NE,46,0.0,3.0,88,0.04,,,0.11,181.0,meteohub,2013-05-08 18:17:00,
2013-05-08 14:22:00,57.7,55.0,29.98,South,173,4.0,4.0,88,0.04,,,0.11,216.0,meteohub,2013-05-08 18:22:00,
2013-05-08 14:28:00,57.7,55.0,29.98,South,173,0.0,5.0,88,0.03,,,0.11,260.0,meteohub,2013-05-08 18:28:00,
2013-05-08 14:34:00,58.1,55.8,29.98,South,173,2.0,5.0,89,0.02,,,0.11,232.0,meteohub,2013-05-08 18:34:00,
2013-05-08 14:40:00,58.1,55.4,29.98,South,174,0.0,4.0,88,0.02,,,0.11,221.0,meteohub,2013-05-08 18:40:00,
2013-05-08 14:46:00,58.1,55.2,29.98,South,169,2.0,4.0,87,0.01,,,0.11,218.0,meteohub,2013-05-08 18:46:00,
2013-05-08 14:52:00,58.1,55.2,29.97,NW,309,0.0,4.0,87,0.01,,,0.11,188.0,meteohub,2013-05-08 18:52:00,
2013-05-08 14:57:00,58.3,55.4,29.97,NW,309,1.0,4.0,87,0.01,,,0.11,186.0,meteohub,2013-05-08 18:57:00,
2013-05-08 15:02:00,58.1,54.9,29.97,SSW,207,2.0,4.0,86,0.01,,,0.11,192.0,meteohub,2013-05-08 19:02:00,
2013-05-08 15:07:00,58.1,54.5,29.97,SW,216,0.0,4.0,85,0.00,,,0.11,183.0,meteohub,2013-05-08 19:07:00,
2013-05-08 15:12:00,58.3,55.4,29.97,SW,216,0.0,4.0,87,0.00,,,0.11,204.0,meteohub,2013-05-08 19:12:00,
2013-05-08 15:17:00,58.5,55.6,29.97,SW,216,0.0,4.0,87,0.00,,,0.11,236.0,meteohub,2013-05-08 19:17:00,
2013-05-08 15:22:00,58.6,55.8,29.97,SW,218,1.0,2.0,87,0.00,,,0.11,287.0,meteohub,2013-05-08 19:22:00,
2013-05-08 15:27:00,58.6,55.0,29.97,SSE,168,4.0,4.0,85,0.00,,,0.11,350.0,meteohub,2013-05-08 19:27:00,
2013-05-08 15:32:00,58.6,55.0,29.97,South,188,4.0,6.0,85,0.00,,,0.11,334.0,meteohub,2013-05-08 19:32:00,
2013-05-08 15:37:00,58.8,55.2,29.97,SSE,163,3.0,6.0,85,0.00,,,0.11,406.0,meteohub,2013-05-08 19:37:00,
2013-05-08 15:42:00,58.8,55.2,29.97,SSE,167,2.0,9.0,85,0.00,,,0.11,399.0,meteohub,2013-05-08 19:42:00,
2013-05-08 15:47:00,59.0,55.4,29.96,SSE,153,2.0,9.0,85,0.00,,,0.11,383.0,meteohub,2013-05-08 19:47:00,
2013-05-08 15:52:00,59.2,55.2,29.96,SSE,152,3.0,11.0,84,0.00,,,0.11,353.0,meteohub,2013-05-08 19:52:00,
2013-05-08 15:57:00,59.2,55.0,29.96,SSE,160,0.0,11.0,83,0.00,,,0.11,299.0,meteohub,2013-05-08 19:57:00,
2013-05-08 16:02:00,59.4,54.9,29.96,WNW,294,0.0,6.0,82,0.00,,,0.11,276.0,meteohub,2013-05-08 20:02:00,
2013-05-08 16:07:00,59.4,54.9,29.96,South,171,3.0,6.0,82,0.00,,,0.11,241.0,meteohub,2013-05-08 20:07:00,
2013-05-08 16:12:00,59.4,55.2,29.96,South,171,0.0,5.0,83,0.00,,,0.11,213.0,meteohub,2013-05-08 20:12:00,
2013-05-08 16:17:00,59.5,55.0,29.96,South,171,0.0,5.0,82,0.00,,,0.11,199.0,meteohub,2013-05-08 20:17:00,
2013-05-08 16:22:00,59.7,55.6,29.96,South,179,0.0,4.0,83,0.00,,,0.11,195.0,meteohub,2013-05-08 20:22:00,
2013-05-08 16:27:00,59.7,55.2,29.95,South,190,0.0,3.0,82,0.00,,,0.11,214.0,meteohub,2013-05-08 20:27:00,
2013-05-08 16:32:00,59.7,55.2,29.95,South,190,0.0,3.0,82,0.00,,,0.11,295.0,meteohub,2013-05-08 20:32:00,
2013-05-08 16:37:00,59.9,55.4,29.95,SSW,198,2.0,3.0,82,0.00,,,0.11,327.0,meteohub,2013-05-08 20:37:00,
2013-05-08 16:42:00,60.1,55.6,29.96,SSW,198,1.0,5.0,82,0.00,,,0.11,330.0,meteohub,2013-05-08 20:42:00,
2013-05-08 16:47:00,60.3,55.4,29.96,SSW,198,2.0,5.0,81,0.00,,,0.11,301.0,meteohub,2013-05-08 20:47:00,
2013-05-08 16:52:00,60.6,56.7,29.96,NW,305,0.0,5.0,84,0.00,,,0.11,274.0,meteohub,2013-05-08 20:52:00,
2013-05-08 16:57:00,60.8,55.9,29.95,NW,305,1.0,3.0,81,0.00,,,0.11,239.0,meteohub,2013-05-08 20:57:00,
2013-05-08 17:02:00,60.8,56.3,29.95,NW,304,2.0,3.0,82,0.00,,,0.11,244.0,meteohub,2013-05-08 21:02:00,
2013-05-08 17:07:00,60.6,54.3,29.95,WNW,300,0.0,3.0,77,0.00,,,0.11,271.0,meteohub,2013-05-08 21:07:00,
2013-05-08 17:12:00,60.6,54.7,29.96,WNW,286,2.0,3.0,78,0.00,,,0.11,265.0,meteohub,2013-05-08 21:12:00,
2013-05-08 17:17:00,60.6,54.7,29.96,West,259,2.0,3.0,78,0.00,,,0.11,246.0,meteohub,2013-05-08 21:17:00,
2013-05-08 17:22:00,60.6,54.7,29.96,WSW,256,1.0,3.0,78,0.00,,,0.11,209.0,meteohub,2013-05-08 21:22:00,
2013-05-08 17:27:00,60.6,54.3,29.95,WSW,256,0.0,3.0,77,0.00,,,0.11,213.0,meteohub,2013-05-08 21:27:00,
2013-05-08 17:34:00,60.8,55.2,29.95,SW,224,2.0,4.0,79,0.00,,,0.11,234.0,meteohub,2013-05-08 21:34:00,
2013-05-08 17:40:00,60.8,54.9,29.95,SW,224,0.0,4.0,78,0.00,,,0.11,274.0,meteohub,2013-05-08 21:40:00,
2013-05-08 17:46:00,61.2,55.2,29.95,SSW,202,1.0,4.0,78,0.00,,,0.11,325.0,meteohub,2013-05-08 21:46:00,
2013-05-08 17:52:00,61.7,55.8,29.95,SSW,202,2.0,3.0,78,0.00,,,0.11,338.0,meteohub,2013-05-08 21:52:00,
2013-05-08 17:57:00,61.9,55.6,29.95,SSW,200,2.0,5.0,77,0.00,,,0.11,480.0,meteohub,2013-05-08 21:57:00,
2013-05-08 18:02:00,62.4,56.1,29.94,SSW,200,0.0,5.0,77,0.00,,,0.11,135.0,meteohub,2013-05-08 22:02:00,
2013-05-08 18:07:00,62.4,55.4,29.95,SSW,194,3.0,5.0,75,0.00,,,0.11,167.0,meteohub,2013-05-08 22:07:00,
2013-05-08 18:12:00,62.1,54.7,29.94,WNW,292,0.0,5.0,74,0.00,,,0.11,107.0,meteohub,2013-05-08 22:12:00,
2013-05-08 18:17:00,62.1,56.1,29.94,WNW,292,0.0,5.0,78,0.00,,,0.11,97.0,meteohub,2013-05-08 22:17:00,
2013-05-08 18:22:00,61.7,54.7,29.94,WNW,292,0.0,5.0,75,0.00,,,0.11,81.0,meteohub,2013-05-08 22:22:00,
2013-05-08 18:27:00,61.5,55.2,29.94,WNW,292,0.0,3.0,77,0.00,,,0.11,88.0,meteohub,2013-05-08 22:27:00,
2013-05-08 18:34:00,61.7,56.1,29.95,WNW,292,0.0,3.0,79,0.00,,,0.11,316.0,meteohub,2013-05-08 22:34:00,
2013-05-08 18:40:00,61.9,54.9,29.95,WNW,286,2.0,2.0,75,0.00,,,0.11,295.0,meteohub,2013-05-08 22:40:00,
2013-05-08 18:46:00,62.1,55.0,29.95,WNW,286,1.0,3.0,75,0.00,,,0.11,250.0,meteohub,2013-05-08 22:46:00,
2013-05-08 18:52:00,62.4,55.4,29.95,WNW,286,0.0,3.0,75,0.00,,,0.11,178.0,meteohub,2013-05-08 22:52:00,
2013-05-08 18:57:00,63.0,55.2,29.94,WNW,286,0.0,3.0,73,0.00,,,0.11,156.0,meteohub,2013-05-08 22:57:00,
2013-05-08 19:02:00,63.3,55.9,29.94,WNW,286,1.0,3.0,74,0.00,,,0.11,135.0,meteohub,2013-05-08 23:02:00,
2013-05-08 19:07:00,63.5,55.8,29.95,WNW,286,0.0,2.0,73,0.00,,,0.11,111.0,meteohub,2013-05-08 23:07:00,
2013-05-08 19:12:00,63.9,56.5,29.95,WNW,286,0.0,2.0,74,0.00,,,0.11,95.0,meteohub,2013-05-08 23:12:00,
2013-05-08 19:17:00,64.2,57.9,29.95,WNW,286,0.0,2.0,77,0.00,,,0.11,79.0,meteohub,2013-05-08 23:17:00,
2013-05-08 19:22:00,63.5,56.5,29.95,WNW,286,0.0,1.0,75,0.00,,,0.11,51.0,meteohub,2013-05-08 23:22:00,
2013-05-08 19:27:00,62.8,57.2,29.95,WNW,286,0.0,2.0,79,0.00,,,0.11,40.0,meteohub,2013-05-08 23:27:00,
2013-05-08 19:32:00,61.9,56.7,29.95,WNW,286,0.0,2.0,80,0.00,,,0.11,23.0,meteohub,2013-05-08 23:32:00,
2013-05-08 19:37:00,61.3,56.5,29.95,WNW,286,0.0,1.0,81,0.00,,,0.11,19.0,meteohub,2013-05-08 23:37:00,
2013-05-08 19:42:00,61.0,56.1,29.95,WNW,286,0.0,0.0,81,0.00,,,0.11,16.0,meteohub,2013-05-08 23:42:00,
2013-05-08 19:47:00,60.3,55.8,29.95,WNW,286,0.0,0.0,82,0.00,,,0.11,14.0,meteohub,2013-05-08 23:47:00,
2013-05-08 19:52:00,59.4,54.9,29.95,WNW,286,0.0,0.0,82,0.00,,,0.11,11.0,meteohub,2013-05-08 23:52:00,
2013-05-08 19:59:00,58.1,54.3,29.95,WNW,286,0.0,0.0,84,0.00,,,0.11,7.0,meteohub,2013-05-08 23:59:00,
2013-05-08 20:05:00,57.6,54.0,29.96,WNW,286,0.0,0.0,85,0.00,,,0.11,5.0,meteohub,2013-05-09 00:05:00,
2013-05-08 20:11:00,57.0,53.8,29.96,WNW,286,0.0,0.0,86,0.00,,,0.11,0.0,meteohub,2013-05-09 00:11:00,
2013-05-08 20:17:00,56.5,53.6,29.96,WNW,286,0.0,1.0,87,0.00,,,0.11,0.0,meteohub,2013-05-09 00:17:00,
2013-05-08 20:22:00,56.1,53.2,29.96,WNW,286,0.0,1.0,87,0.00,,,0.11,0.0,meteohub,2013-05-09 00:22:00,
2013-05-08 20:27:00,55.8,52.9,29.97,WNW,286,0.0,1.0,87,0.00,,,0.11,0.0,meteohub,2013-05-09 00:27:00,
2013-05-08 20:32:00,55.4,52.9,29.97,WNW,286,0.0,0.0,88,0.00,,,0.11,0.0,meteohub,2013-05-09 00:32:00,
2013-05-08 20:37:00,55.2,52.7,29.97,WNW,286,0.0,0.0,88,0.00,,,0.11,0.0,meteohub,2013-05-09 00:37:00,
2013-05-08 20:42:00,54.7,52.2,29.97,WNW,286,0.0,0.0,88,0.00,,,0.11,0.0,meteohub,2013-05-09 00:42:00,
2013-05-08 20:47:00,54.5,52.0,29.97,WNW,286,0.0,0.0,88,0.00,,,0.11,0.0,meteohub,2013-05-09 00:47:00,
2013-05-08 20:52:00,54.3,51.8,29.97,WNW,286,0.0,0.0,88,0.00,,,0.11,0.0,meteohub,2013-05-09 00:52:00,
2013-05-08 20:57:00,54.0,51.6,29.97,WNW,286,0.0,0.0,89,0.00,,,0.11,0.0,meteohub,2013-05-09 00:57:00,
2013-05-08 21:02:00,53.8,51.4,29.97,WNW,286,0.0,0.0,89,0.00,,,0.11,0.0,meteohub,2013-05-09 01:02:00,
2013-05-08 21:07:00,53.6,51.3,29.97,WNW,286,0.0,0.0,89,0.00,,,0.11,0.0,meteohub,2013-05-09 01:07:00,
2013-05-08 21:12:00,53.6,51.3,29.98,WNW,286,0.0,0.0,89,0.00,,,0.11,0.0,meteohub,2013-05-09 01:12:00,
2013-05-08 21:17:00,53.2,50.9,29.98,WNW,286,0.0,0.0,89,0.00,,,0.11,0.0,meteohub,2013-05-09 01:17:00,
2013-05-08 21:22:00,53.1,50.7,29.98,WNW,286,0.0,0.0,89,0.00,,,0.11,0.0,meteohub,2013-05-09 01:22:00,
2013-05-08 21:27:00,52.9,50.5,29.98,WNW,286,0.0,0.0,89,0.00,,,0.11,0.0,meteohub,2013-05-09 01:27:00,
2013-05-08 21:32:00,52.7,50.7,29.98,WNW,286,0.0,0.0,90,0.00,,,0.11,0.0,meteohub,2013-05-09 01:32:00,
2013-05-08 21:37:00,52.5,50.5,29.98,WNW,286,0.0,0.0,90,0.00,,,0.11,0.0,meteohub,2013-05-09 01:37:00,
2013-05-08 21:42:00,52.3,50.4,29.98,WNW,286,0.0,0.0,90,0.00,,,0.11,0.0,meteohub,2013-05-09 01:42:00,
2013-05-08 21:47:00,52.2,50.2,29.98,WNW,286,0.0,0.0,90,0.00,,,0.11,0.0,meteohub,2013-05-09 01:47:00,
2013-05-08 21:52:00,52.0,50.0,29.99,WNW,286,0.0,0.0,90,0.00,,,0.11,0.0,meteohub,2013-05-09 01:52:00,
2013-05-08 21:57:00,52.0,50.0,29.99,WNW,286,0.0,0.0,90,0.00,,,0.11,0.0,meteohub,2013-05-09 01:57:00,
2013-05-08 22:02:00,51.8,49.8,29.99,WNW,286,0.0,0.0,90,0.00,,,0.11,0.0,meteohub,2013-05-09 02:02:00,
2013-05-08 22:07:00,51.8,49.8,29.99,WNW,286,0.0,0.0,90,0.00,,,0.11,0.0,meteohub,2013-05-09 02:07:00,
2013-05-08 22:12:00,51.6,49.6,29.99,WNW,286,0.0,0.0,90,0.00,,,0.11,0.0,meteohub,2013-05-09 02:12:00,
2013-05-08 22:17:00,51.4,49.5,29.99,WNW,286,0.0,0.0,90,0.00,,,0.11,0.0,meteohub,2013-05-09 02:17:00,
2013-05-08 22:22:00,51.4,49.8,29.99,WNW,286,0.0,0.0,91,0.00,,,0.11,0.0,meteohub,2013-05-09 02:22:00,
2013-05-08 22:27:00,51.3,49.6,29.99,WNW,286,0.0,0.0,91,0.00,,,0.11,0.0,meteohub,2013-05-09 02:27:00,
2013-05-08 22:32:00,51.3,49.6,29.99,WNW,286,0.0,0.0,91,0.00,,,0.11,0.0,meteohub,2013-05-09 02:32:00,
2013-05-08 22:37:00,51.1,49.5,29.99,WNW,286,0.0,0.0,91,0.00,,,0.11,0.0,meteohub,2013-05-09 02:37:00,
2013-05-08 22:42:00,51.1,49.5,29.99,WNW,286,0.0,0.0,91,0.00,,,0.11,0.0,meteohub,2013-05-09 02:42:00,
2013-05-08 22:47:00,51.1,49.5,29.99,WNW,286,0.0,0.0,91,0.00,,,0.11,0.0,meteohub,2013-05-09 02:47:00,
2013-05-08 22:52:00,51.1,49.5,29.99,WNW,286,0.0,0.0,91,0.00,,,0.11,0.0,meteohub,2013-05-09 02:52:00,
2013-05-08 22:57:00,50.9,49.3,29.99,WNW,286,0.0,0.0,91,0.00,,,0.11,0.0,meteohub,2013-05-09 02:57:00,
2013-05-08 23:02:00,50.9,49.3,29.99,WNW,286,0.0,0.0,91,0.00,,,0.11,0.0,meteohub,2013-05-09 03:02:00,
2013-05-08 23:07:00,50.9,49.3,29.99,WNW,286,0.0,0.0,91,0.00,,,0.11,0.0,meteohub,2013-05-09 03:07:00,
2013-05-08 23:12:00,50.7,49.1,29.99,WNW,286,0.0,0.0,91,0.00,,,0.11,0.0,meteohub,2013-05-09 03:12:00,
2013-05-08 23:17:00,50.7,49.1,29.99,WNW,286,0.0,0.0,91,0.00,,,0.11,0.0,meteohub,2013-05-09 03:17:00,
2013-05-08 23:22:00,50.7,49.1,29.99,WNW,286,0.0,0.0,91,0.00,,,0.11,0.0,meteohub,2013-05-09 03:22:00,
2013-05-08 23:27:00,50.7,49.1,29.99,WNW,286,0.0,0.0,91,0.00,,,0.11,0.0,meteohub,2013-05-09 03:27:00,
2013-05-08 23:32:00,50.7,49.1,29.99,WNW,286,0.0,0.0,91,0.00,,,0.11,0.0,meteohub,2013-05-09 03:32:00,
2013-05-08 23:37:00,50.7,49.1,29.99,WNW,286,0.0,0.0,91,0.00,,,0.11,0.0,meteohub,2013-05-09 03:37:00,
2013-05-08 23:42:00,50.5,48.9,29.99,WNW,286,0.0,0.0,91,0.00,,,0.11,0.0,meteohub,2013-05-09 03:42:00,
2013-05-08 23:47:00,50.5,48.9,29.99,WNW,286,0.0,0.0,91,0.00,,,0.11,0.0,meteohub,2013-05-09 03:47:00,
2013-05-08 23:52:00,50.5,48.9,29.99,WNW,286,0.0,0.0,91,0.00,,,0.11,0.0,meteohub,2013-05-09 03:52:00,
2013-05-08 23:57:00,50.5,48.9,29.99,WNW,286,0.0,0.0,91,0.00,,,0.11,0.0,meteohub,2013-05-09 03:57:00,